Time;durP1;ratioP1;P1;durP2;ratioP2;P2;SDS_P1;SDS_P2;PMS_P1;PMS_P2;Temp;Humidity;BMP_temperature;BMP_pressure;BME280_temperature;BME280_humidity;BME280_pressure;Samples;Min_cycle;Max_cycle;Signal;HPM_P1;HPM_P2
2024/01/17 00:00:28;;;;;;;19.55;9.48;;;;;;;;;;4952610;29;20051;-66
2024/01/17 00:02:57;;;;;;;21.38;8.55;;;;;;;;;;4952943;29;20142;-64
2024/01/17 00:05:24;;;;;;;22.42;9.25;;;;;;;;;;4953583;28;20460;-62
2024/01/17 00:07:50;;;;;;;17.50;8.77;;;;;;;;;;4936311;29;20051;-63
2024/01/17 00:10:17;;;;;;;28.80;10.30;;;;;;;;;;4953594;29;20089;-62
2024/01/17 00:12:44;;;;;;;21.20;9.57;;;;;;;;;;4953529;29;20107;-69
2024/01/17 00:15:10;;;;;;;20.50;8.98;;;;;;;;;;4953564;29;20087;-62
2024/01/17 00:17:37;;;;;;;19.83;9.10;;;;;;;;;;4953885;29;20492;-63
2024/01/17 00:20:04;;;;;;;21.35;10.35;;;;;;;;;;4953819;29;20047;-63
2024/01/17 00:22:30;;;;;;;24.83;8.90;;;;;;;;;;4951734;28;20121;-65
2024/01/17 00:24:56;;;;;;;21.35;9.15;;;;;;;;;;4952178;29;20062;-62
2024/01/17 00:27:25;;;;;;;24.98;9.55;;;;;;;;;;4952540;29;20139;-63
2024/01/17 00:29:57;;;;;;;18.02;9.45;;;;;;;;;;4952320;29;20051;-62
2024/01/17 00:32:25;;;;;;;19.40;9.18;;;;;;;;;;4952304;29;20649;-63
2024/01/17 00:34:52;;;;;;;21.30;8.80;;;;;;;;;;4952386;29;20063;-63
2024/01/17 00:37:18;;;;;;;22.33;8.52;;;;;;;;;;4952265;29;20051;-63
2024/01/17 00:39:48;;;;;;;18.83;9.27;;;;;;;;;;4952030;29;20510;-62
2024/01/17 00:42:15;;;;;;;18.33;9.38;;;;;;;;;;4952086;29;20547;-63
2024/01/17 00:44:41;;;;;;;24.80;9.77;;;;;;;;;;4952811;29;20055;-63
2024/01/17 00:47:08;;;;;;;25.50;9.82;;;;;;;;;;4953314;29;20150;-62
2024/01/17 00:49:35;;;;;;;20.83;9.30;;;;;;;;;;4952152;29;20140;-64
2024/01/17 00:52:01;;;;;;;15.45;9.00;;;;;;;;;;4951534;28;20630;-65
2024/01/17 00:54:31;;;;;;;21.40;9.13;;;;;;;;;;4950905;28;20066;-63
2024/01/17 00:56:58;;;;;;;22.73;9.68;;;;;;;;;;4951190;29;20051;-65
2024/01/17 00:59:24;;;;;;;24.60;10.45;;;;;;;;;;4951809;29;20058;-64
2024/01/17 01:01:51;;;;;;;17.13;9.60;;;;;;;;;;4951712;28;20044;-62
2024/01/17 01:04:17;;;;;;;23.55;10.07;;;;;;;;;;4951751;29;20141;-65
2024/01/17 01:06:43;;;;;;;26.77;11.20;;;;;;;;;;4934795;29;20059;-63
2024/01/17 01:09:13;;;;;;;26.08;10.40;;;;;;;;;;4952747;29;20531;-65
2024/01/17 01:11:40;;;;;;;26.52;10.40;;;;;;;;;;4952430;29;20535;-64
2024/01/17 01:14:09;;;;;;;22.52;11.52;;;;;;;;;;4951493;29;20142;-62
2024/01/17 01:16:35;;;;;;;21.23;9.70;;;;;;;;;;4951203;29;20146;-64
2024/01/17 01:19:04;;;;;;;21.20;10.02;;;;;;;;;;4951504;29;20507;-62
2024/01/17 01:21:33;;;;;;;22.27;10.40;;;;;;;;;;4951417;29;20131;-63
2024/01/17 01:24:00;;;;;;;34.83;11.10;;;;;;;;;;4950336;28;20109;-62
2024/01/17 01:26:26;;;;;;;21.95;10.32;;;;;;;;;;4951425;29;20055;-63
2024/01/17 01:28:53;;;;;;;22.70;10.45;;;;;;;;;;4951238;29;20556;-62
2024/01/17 01:31:19;;;;;;;31.13;10.98;;;;;;;;;;4931032;29;20047;-62
2024/01/17 01:33:46;;;;;;;19.38;9.82;;;;;;;;;;4934179;29;20047;-63
2024/01/17 01:36:12;;;;;;;27.17;10.65;;;;;;;;;;4932849;29;20551;-63
2024/01/17 01:38:39;;;;;;;19.35;10.02;;;;;;;;;;4931842;29;20094;-62
2024/01/17 01:41:05;;;;;;;20.10;10.60;;;;;;;;;;4932142;29;20052;-62
2024/01/17 01:43:32;;;;;;;20.30;9.68;;;;;;;;;;4931648;29;20527;-64
2024/01/17 01:46:04;;;;;;;24.15;11.18;;;;;;;;;;4931896;29;20103;-63
2024/01/17 01:48:34;;;;;;;26.73;10.88;;;;;;;;;;4932368;29;20096;-62
2024/01/17 01:51:01;;;;;;;30.67;10.57;;;;;;;;;;4931760;29;20052;-62
2024/01/17 01:53:29;;;;;;;31.42;10.95;;;;;;;;;;4935488;28;20047;-63
2024/01/17 01:55:55;;;;;;;30.10;11.88;;;;;;;;;;4951696;29;20051;-63
2024/01/17 01:58:21;;;;;;;25.35;11.27;;;;;;;;;;4952473;29;20048;-63
2024/01/17 02:00:49;;;;;;;22.30;11.00;;;;;;;;;;4950691;29;20055;-63
2024/01/17 02:03:15;;;;;;;25.02;10.68;;;;;;;;;;4950891;29;20082;-63
2024/01/17 02:05:43;;;;;;;25.70;13.38;;;;;;;;;;4950891;29;20106;-62
2024/01/17 02:08:09;;;;;;;24.20;11.25;;;;;;;;;;4950251;28;20049;-63
2024/01/17 02:10:36;;;;;;;26.85;11.65;;;;;;;;;;4950710;28;20078;-63
2024/01/17 02:13:03;;;;;;;24.65;12.52;;;;;;;;;;4950264;29;20047;-64
2024/01/17 02:15:29;;;;;;;25.20;10.98;;;;;;;;;;4933857;29;20556;-63
2024/01/17 02:17:55;;;;;;;26.70;12.10;;;;;;;;;;4952836;29;20055;-63
2024/01/17 02:20:22;;;;;;;25.80;11.75;;;;;;;;;;4952100;29;20047;-63
2024/01/17 02:22:49;;;;;;;26.30;12.30;;;;;;;;;;4950643;29;20502;-62
2024/01/17 02:25:18;;;;;;;34.78;12.10;;;;;;;;;;4949874;28;20069;-62
2024/01/17 02:27:44;;;;;;;35.00;13.18;;;;;;;;;;4950239;29;20106;-63
2024/01/17 02:30:12;;;;;;;29.98;10.88;;;;;;;;;;4950530;29;20168;-62
2024/01/17 02:32:38;;;;;;;32.20;12.30;;;;;;;;;;4950455;29;20403;-63
2024/01/17 02:35:05;;;;;;;26.70;12.63;;;;;;;;;;4950658;29;20040;-63
2024/01/17 02:37:31;;;;;;;32.60;12.77;;;;;;;;;;4949308;29;20085;-62
2024/01/17 02:39:58;;;;;;;28.95;12.15;;;;;;;;;;4950297;29;20219;-62
2024/01/17 02:42:24;;;;;;;26.45;12.52;;;;;;;;;;4950568;29;20055;-63
2024/01/17 02:44:50;;;;;;;31.63;12.05;;;;;;;;;;4950352;29;20118;-62
2024/01/17 02:47:17;;;;;;;29.90;13.35;;;;;;;;;;4950910;29;20082;-62
2024/01/17 02:49:49;;;;;;;25.75;12.30;;;;;;;;;;4950929;29;20512;-64
2024/01/17 02:52:16;;;;;;;23.35;12.50;;;;;;;;;;4950322;28;20464;-63
2024/01/17 02:54:42;;;;;;;30.00;12.45;;;;;;;;;;4948569;28;20055;-63
2024/01/17 02:57:09;;;;;;;31.35;14.43;;;;;;;;;;4950924;29;20051;-66
2024/01/17 02:59:36;;;;;;;34.35;13.32;;;;;;;;;;4951317;29;20059;-63
2024/01/17 03:02:04;;;;;;;36.10;13.80;;;;;;;;;;4950355;28;20095;-63
2024/01/17 03:04:30;;;;;;;27.90;12.73;;;;;;;;;;4950134;28;20138;-63
2024/01/17 03:06:58;;;;;;;39.20;15.23;;;;;;;;;;4932684;29;20054;-62
2024/01/17 03:09:30;;;;;;;36.60;13.50;;;;;;;;;;4934045;29;20334;-63
2024/01/17 03:11:57;;;;;;;35.00;12.60;;;;;;;;;;4950114;28;20051;-63
2024/01/17 03:14:30;;;;;;;32.35;13.43;;;;;;;;;;4949922;28;20054;-64
2024/01/17 03:16:57;;;;;;;25.70;12.88;;;;;;;;;;4949952;29;20086;-62
2024/01/17 03:19:27;;;;;;;30.52;13.77;;;;;;;;;;4952252;28;20239;-63
2024/01/17 03:21:54;;;;;;;29.83;13.75;;;;;;;;;;4936764;29;20055;-63
2024/01/17 03:24:20;;;;;;;33.60;14.40;;;;;;;;;;4954090;28;20389;-63
2024/01/17 03:26:47;;;;;;;27.02;12.90;;;;;;;;;;4953161;28;20043;-63
2024/01/17 03:29:13;;;;;;;28.50;12.52;;;;;;;;;;4953380;29;20059;-63
2024/01/17 03:31:40;;;;;;;41.30;14.38;;;;;;;;;;4953187;29;20055;-62
2024/01/17 03:34:06;;;;;;;29.45;13.60;;;;;;;;;;4953928;29;20205;-62
2024/01/17 03:36:33;;;;;;;25.95;11.68;;;;;;;;;;4952182;29;20077;-63
2024/01/17 03:38:59;;;;;;;36.63;13.80;;;;;;;;;;4952282;29;20055;-65
2024/01/17 03:41:26;;;;;;;33.00;13.88;;;;;;;;;;4952787;29;20048;-63
2024/01/17 03:43:56;;;;;;;31.50;14.70;;;;;;;;;;4952152;29;20086;-64
2024/01/17 03:46:24;;;;;;;26.77;14.05;;;;;;;;;;4953184;29;20404;-64
2024/01/17 03:48:50;;;;;;;30.45;13.30;;;;;;;;;;4953192;29;20051;-63
2024/01/17 03:51:17;;;;;;;25.55;12.90;;;;;;;;;;4952968;28;20467;-64
2024/01/17 03:53:46;;;;;;;31.17;14.38;;;;;;;;;;4953476;29;20055;-65
2024/01/17 03:56:13;;;;;;;32.08;14.32;;;;;;;;;;4953238;28;20043;-63
2024/01/17 03:58:39;;;;;;;29.67;13.60;;;;;;;;;;4953345;29;20408;-63
2024/01/17 04:01:06;;;;;;;44.17;15.93;;;;;;;;;;4953243;29;20051;-62
2024/01/17 04:03:32;;;;;;;34.28;13.48;;;;;;;;;;4952524;29;20050;-63
2024/01/17 04:05:59;;;;;;;38.80;15.85;;;;;;;;;;4952656;29;20207;-62
2024/01/17 04:08:25;;;;;;;33.33;14.65;;;;;;;;;;4952680;29;20102;-64
2024/01/17 04:10:52;;;;;;;31.35;14.38;;;;;;;;;;4936033;29;20055;-62
2024/01/17 04:13:18;;;;;;;34.80;14.82;;;;;;;;;;4935864;29;20585;-63
2024/01/17 04:15:44;;;;;;;29.48;13.25;;;;;;;;;;4952648;29;20118;-62
2024/01/17 04:18:11;;;;;;;35.45;14.57;;;;;;;;;;4952883;29;20141;-62
2024/01/17 04:20:37;;;;;;;39.42;14.02;;;;;;;;;;4953363;29;20708;-63
2024/01/17 04:23:10;;;;;;;31.33;14.43;;;;;;;;;;4952488;29;20066;-63
2024/01/17 04:25:37;;;;;;;32.72;13.55;;;;;;;;;;4952293;28;20047;-62
2024/01/17 04:28:06;;;;;;;29.42;15.13;;;;;;;;;;4951721;28;20057;-63
2024/01/17 04:30:33;;;;;;;32.75;14.02;;;;;;;;;;4952323;28;20102;-62
2024/01/17 04:33:00;;;;;;;34.17;14.10;;;;;;;;;;4952266;29;20492;-62
2024/01/17 04:35:27;;;;;;;42.33;16.40;;;;;;;;;;4952294;29;20526;-63
2024/01/17 04:37:53;;;;;;;40.13;14.18;;;;;;;;;;4952618;29;20066;-62
2024/01/17 04:40:20;;;;;;;36.83;14.88;;;;;;;;;;4951826;29;20480;-64
2024/01/17 04:42:48;;;;;;;30.55;13.35;;;;;;;;;;4952664;29;20082;-63
2024/01/17 04:45:17;;;;;;;26.60;13.30;;;;;;;;;;4953115;29;20122;-63
2024/01/17 04:47:44;;;;;;;29.13;12.65;;;;;;;;;;4952226;29;20051;-63
2024/01/17 04:50:12;;;;;;;30.77;12.82;;;;;;;;;;4934966;29;20592;-63
2024/01/17 04:52:39;;;;;;;32.75;12.82;;;;;;;;;;4952080;28;20055;-63
2024/01/17 04:55:08;;;;;;;27.77;13.32;;;;;;;;;;4952151;29;20134;-63
2024/01/17 04:57:35;;;;;;;28.25;12.05;;;;;;;;;;4951200;28;20071;-64
2024/01/17 05:00:03;;;;;;;24.58;11.45;;;;;;;;;;4934791;29;20051;-63
2024/01/17 05:02:30;;;;;;;32.47;13.63;;;;;;;;;;4952032;29;20106;-62
2024/01/17 05:04:56;;;;;;;31.52;14.30;;;;;;;;;;4934690;29;20094;-64
2024/01/17 05:07:25;;;;;;;36.35;12.75;;;;;;;;;;4952336;29;20066;-62
2024/01/17 05:09:52;;;;;;;36.45;13.55;;;;;;;;;;4935406;29;20047;-63
2024/01/17 05:12:18;;;;;;;31.80;13.15;;;;;;;;;;4951525;29;20524;-63
2024/01/17 05:14:45;;;;;;;31.77;14.43;;;;;;;;;;4934589;29;20121;-62
2024/01/17 05:17:12;;;;;;;30.52;14.75;;;;;;;;;;4951203;28;20051;-63
2024/01/17 05:19:39;;;;;;;27.40;12.55;;;;;;;;;;4951543;29;20318;-63
2024/01/17 05:22:06;;;;;;;32.63;13.60;;;;;;;;;;4951318;28;20086;-62
2024/01/17 05:24:32;;;;;;;30.08;14.57;;;;;;;;;;4951251;28;20114;-62
2024/01/17 05:26:59;;;;;;;35.03;14.20;;;;;;;;;;4950643;28;20400;-63
2024/01/17 05:29:25;;;;;;;40.88;15.93;;;;;;;;;;4951581;29;20102;-64
2024/01/17 05:31:52;;;;;;;35.78;14.52;;;;;;;;;;4951054;29;20055;-62
2024/01/17 05:34:21;;;;;;;35.20;14.70;;;;;;;;;;4951237;29;20058;-63
2024/01/17 05:36:48;;;;;;;35.95;14.75;;;;;;;;;;4949813;29;20146;-63
2024/01/17 05:39:14;;;;;;;32.08;13.52;;;;;;;;;;4950325;29;20406;-62
2024/01/17 05:41:41;;;;;;;33.47;15.07;;;;;;;;;;4933863;29;20134;-62
2024/01/17 05:44:07;;;;;;;35.25;13.85;;;;;;;;;;4951351;29;20055;-62
2024/01/17 05:46:36;;;;;;;33.53;14.35;;;;;;;;;;4951407;29;20134;-62
2024/01/17 05:49:02;;;;;;;39.47;15.32;;;;;;;;;;4951248;29;20074;-62
2024/01/17 05:51:29;;;;;;;26.50;13.07;;;;;;;;;;4950958;28;20507;-62
2024/01/17 05:53:59;;;;;;;31.77;12.98;;;;;;;;;;4953980;29;20058;-65
2024/01/17 05:56:25;;;;;;;34.50;14.68;;;;;;;;;;4953028;29;20098;-62
2024/01/17 05:58:52;;;;;;;34.53;14.80;;;;;;;;;;4946839;28;20047;-63
2024/01/17 06:01:20;;;;;;;41.40;14.88;;;;;;;;;;4950775;29;20106;-62
2024/01/17 06:03:47;;;;;;;39.13;13.40;;;;;;;;;;4950359;29;20078;-63
2024/01/17 06:06:13;;;;;;;32.47;14.77;;;;;;;;;;4950895;29;20051;-62
2024/01/17 06:08:40;;;;;;;33.83;15.60;;;;;;;;;;4950712;29;20051;-63
2024/01/17 06:11:10;;;;;;;35.28;15.15;;;;;;;;;;4950641;29;20047;-62
2024/01/17 06:13:36;;;;;;;38.60;14.80;;;;;;;;;;4950606;29;20051;-63
2024/01/17 06:16:02;;;;;;;41.10;16.50;;;;;;;;;;4950763;29;20419;-65
2024/01/17 06:18:32;;;;;;;30.58;14.98;;;;;;;;;;4950511;29;20210;-62
2024/01/17 06:20:58;;;;;;;38.35;16.05;;;;;;;;;;4950235;29;20411;-64
2024/01/17 06:23:29;;;;;;;37.17;14.68;;;;;;;;;;4950720;29;20502;-63
2024/01/17 06:25:56;;;;;;;40.33;14.38;;;;;;;;;;4950725;29;20059;-62
2024/01/17 06:28:25;;;;;;;39.28;13.82;;;;;;;;;;4949540;28;20408;-63
2024/01/17 06:30:54;;;;;;;45.20;14.93;;;;;;;;;;4950761;29;20126;-63
2024/01/17 06:33:24;;;;;;;34.50;13.63;;;;;;;;;;4950540;29;20111;-64
2024/01/17 06:35:50;;;;;;;47.67;14.60;;;;;;;;;;4950693;29;20083;-62
2024/01/17 06:38:17;;;;;;;37.25;15.35;;;;;;;;;;4950494;29;20556;-63
2024/01/17 06:40:43;;;;;;;38.92;13.98;;;;;;;;;;4950408;29;20485;-63
2024/01/17 06:43:20;;;;;;;35.97;14.70;;;;;;;;;;4950166;29;20142;-63
2024/01/17 06:45:49;;;;;;;31.27;12.77;;;;;;;;;;4950114;29;20114;-63
2024/01/17 06:48:19;;;;;;;33.10;13.57;;;;;;;;;;4950227;29;20149;-62
2024/01/17 06:50:46;;;;;;;35.08;14.48;;;;;;;;;;4949995;28;20051;-63
2024/01/17 06:53:13;;;;;;;32.90;13.45;;;;;;;;;;4951101;28;20134;-62
2024/01/17 06:55:39;;;;;;;33.05;13.02;;;;;;;;;;4954399;29;20539;-64
2024/01/17 06:58:06;;;;;;;28.73;12.32;;;;;;;;;;4948021;28;20106;-63
2024/01/17 07:00:32;;;;;;;31.05;12.77;;;;;;;;;;4954039;28;20065;-63
2024/01/17 07:03:00;;;;;;;38.60;13.32;;;;;;;;;;4953913;29;20138;-63
2024/01/17 07:05:33;;;;;;;32.63;14.68;;;;;;;;;;4955434;29;20074;-66
2024/01/17 07:07:59;;;;;;;33.17;13.82;;;;;;;;;;4956061;29;20415;-63
2024/01/17 07:10:25;;;;;;;26.90;12.93;;;;;;;;;;4954011;29;20055;-65
2024/01/17 07:12:52;;;;;;;31.80;13.43;;;;;;;;;;4954587;29;20238;-63
2024/01/17 07:15:19;;;;;;;28.27;12.90;;;;;;;;;;4953773;29;20125;-62
2024/01/17 07:17:45;;;;;;;35.88;12.63;;;;;;;;;;4953878;29;20535;-62
2024/01/17 07:20:12;;;;;;;33.42;12.60;;;;;;;;;;4936912;29;20106;-62
2024/01/17 07:22:51;;;;;;;36.03;13.25;;;;;;;;;;4953789;29;20114;-63
2024/01/17 07:25:17;;;;;;;29.73;12.90;;;;;;;;;;4953826;29;20054;-64
2024/01/17 07:27:44;;;;;;;28.63;12.15;;;;;;;;;;4937234;29;20547;-63
2024/01/17 07:30:11;;;;;;;26.70;12.23;;;;;;;;;;4954875;28;20078;-64
2024/01/17 07:32:38;;;;;;;24.45;12.07;;;;;;;;;;4954135;29;20416;-64
2024/01/17 07:35:06;;;;;;;27.00;12.10;;;;;;;;;;4953872;29;20138;-62
2024/01/17 07:37:33;;;;;;;34.60;12.50;;;;;;;;;;4954767;29;20102;-63
2024/01/17 07:39:59;;;;;;;28.33;11.85;;;;;;;;;;4954784;29;20547;-61
2024/01/17 07:42:25;;;;;;;35.75;13.20;;;;;;;;;;4953245;29;20051;-62
2024/01/17 07:44:55;;;;;;;28.85;13.10;;;;;;;;;;4954431;29;20105;-64
2024/01/17 07:47:21;;;;;;;29.27;13.32;;;;;;;;;;4954084;29;20137;-62
2024/01/17 07:49:48;;;;;;;34.33;13.75;;;;;;;;;;4954467;29;20047;-62
2024/01/17 07:52:15;;;;;;;30.23;13.82;;;;;;;;;;4953745;28;20051;-65
2024/01/17 07:54:41;;;;;;;31.40;12.68;;;;;;;;;;4954080;29;20055;-62
2024/01/17 07:57:07;;;;;;;21.38;11.93;;;;;;;;;;4947871;29;20052;-62
2024/01/17 07:59:34;;;;;;;34.47;13.38;;;;;;;;;;4952419;28;20047;-62
2024/01/17 08:02:02;;;;;;;26.65;11.18;;;;;;;;;;4952495;28;20054;-62
2024/01/17 08:04:28;;;;;;;23.08;11.60;;;;;;;;;;4953276;28;20527;-61
2024/01/17 08:06:55;;;;;;;27.95;11.40;;;;;;;;;;4952959;29;20057;-66
2024/01/17 08:09:21;;;;;;;25.77;11.20;;;;;;;;;;4952530;29;20107;-63
2024/01/17 08:11:49;;;;;;;23.92;11.93;;;;;;;;;;4952745;29;20146;-62
2024/01/17 08:14:16;;;;;;;28.35;12.80;;;;;;;;;;4952575;29;20061;-63
2024/01/17 08:16:43;;;;;;;29.33;13.10;;;;;;;;;;4953616;29;20295;-62
2024/01/17 08:19:09;;;;;;;29.15;12.05;;;;;;;;;;4952979;29;20039;-62
2024/01/17 08:21:36;;;;;;;29.58;11.68;;;;;;;;;;4952498;29;20070;-62
2024/01/17 08:24:03;;;;;;;22.27;11.68;;;;;;;;;;4952734;29;20047;-63
2024/01/17 08:26:29;;;;;;;24.02;11.52;;;;;;;;;;4952284;29;20252;-64
2024/01/17 08:28:56;;;;;;;25.77;11.85;;;;;;;;;;4952598;29;20055;-64
2024/01/17 08:31:23;;;;;;;25.58;11.48;;;;;;;;;;4952117;28;20089;-63
2024/01/17 08:33:52;;;;;;;29.92;11.57;;;;;;;;;;4951567;28;20075;-65
2024/01/17 08:36:28;;;;;;;20.83;10.77;;;;;;;;;;4952276;29;20099;-64
2024/01/17 08:38:54;;;;;;;24.38;10.68;;;;;;;;;;4952112;29;20479;-63
2024/01/17 08:41:21;;;;;;;32.78;11.65;;;;;;;;;;4951872;29;20063;-62
2024/01/17 08:43:47;;;;;;;27.33;10.15;;;;;;;;;;4952242;29;20117;-63
2024/01/17 08:46:14;;;;;;;25.00;10.48;;;;;;;;;;4935103;29;20141;-62
2024/01/17 08:48:41;;;;;;;22.45;10.35;;;;;;;;;;4935192;29;20050;-64
2024/01/17 08:51:08;;;;;;;20.98;10.82;;;;;;;;;;4951728;28;20054;-63
2024/01/17 08:53:34;;;;;;;22.83;10.77;;;;;;;;;;4952327;29;20044;-63
2024/01/17 08:56:04;;;;;;;24.58;10.05;;;;;;;;;;4951762;29;20066;-63
2024/01/17 08:58:31;;;;;;;20.55;9.80;;;;;;;;;;4951616;29;20043;-62
2024/01/17 09:00:58;;;;;;;21.25;9.50;;;;;;;;;;4952018;29;20134;-62
2024/01/17 09:03:24;;;;;;;24.25;10.23;;;;;;;;;;4950895;28;20051;-64
2024/01/17 09:05:51;;;;;;;19.08;9.95;;;;;;;;;;4951689;29;20047;-63
2024/01/17 09:08:18;;;;;;;20.98;9.30;;;;;;;;;;4951514;29;20055;-63
2024/01/17 09:10:45;;;;;;;27.10;10.30;;;;;;;;;;4951517;29;20148;-64
2024/01/17 09:13:13;;;;;;;21.15;10.65;;;;;;;;;;4951641;29;20047;-62
2024/01/17 09:15:40;;;;;;;19.95;10.23;;;;;;;;;;4951067;28;20047;-63
2024/01/17 09:18:07;;;;;;;19.10;9.57;;;;;;;;;;4951543;29;20142;-62
2024/01/17 09:20:34;;;;;;;22.10;10.93;;;;;;;;;;4951648;29;20122;-62
2024/01/17 09:23:00;;;;;;;18.42;9.35;;;;;;;;;;4951591;29;20137;-64
2024/01/17 09:25:27;;;;;;;17.65;9.25;;;;;;;;;;4951214;29;20055;-63
2024/01/17 09:27:53;;;;;;;24.67;9.25;;;;;;;;;;4951200;29;20055;-62
2024/01/17 09:30:20;;;;;;;22.05;9.32;;;;;;;;;;4950928;29;20090;-63
2024/01/17 09:32:47;;;;;;;23.10;8.60;;;;;;;;;;4950256;28;20427;-64
2024/01/17 09:35:17;;;;;;;17.85;9.20;;;;;;;;;;4951587;29;20146;-62
2024/01/17 09:37:43;;;;;;;20.38;8.70;;;;;;;;;;4951855;29;20492;-63
2024/01/17 09:40:11;;;;;;;23.42;9.68;;;;;;;;;;4951821;29;20043;-62
2024/01/17 09:42:38;;;;;;;28.88;9.05;;;;;;;;;;4953712;29;20051;-63
2024/01/17 09:45:07;;;;;;;22.02;9.02;;;;;;;;;;4953597;29;20193;-64
2024/01/17 09:47:34;;;;;;;21.85;10.07;;;;;;;;;;4933860;29;20102;-64
2024/01/17 09:50:00;;;;;;;52.60;13.48;;;;;;;;;;4951103;29;20443;-63
2024/01/17 09:52:27;;;;;;;31.02;11.98;;;;;;;;;;4950697;28;20078;-61
2024/01/17 09:54:54;;;;;;;14.50;8.43;;;;;;;;;;4951082;29;20051;-62
2024/01/17 09:57:24;;;;;;;20.45;10.05;;;;;;;;;;4950521;29;20055;-64
2024/01/17 09:59:57;;;;;;;19.15;8.40;;;;;;;;;;4950901;29;20556;-61
2024/01/17 10:02:24;;;;;;;17.95;9.15;;;;;;;;;;4950754;28;20122;-63
2024/01/17 10:04:51;;;;;;;15.85;9.73;;;;;;;;;;4950373;28;20097;-64
2024/01/17 10:07:18;;;;;;;18.77;9.25;;;;;;;;;;4950887;29;20055;-63
2024/01/17 10:09:45;;;;;;;26.40;9.77;;;;;;;;;;4933829;29;20066;-62
2024/01/17 10:12:13;;;;;;;19.98;9.10;;;;;;;;;;4950791;29;20515;-63
2024/01/17 10:14:40;;;;;;;22.60;10.05;;;;;;;;;;4950730;29;20074;-63
2024/01/17 10:17:06;;;;;;;25.02;10.20;;;;;;;;;;4950544;29;20051;-62
2024/01/17 10:19:33;;;;;;;18.50;8.60;;;;;;;;;;4933442;29;20062;-63
2024/01/17 10:22:04;;;;;;;16.90;8.45;;;;;;;;;;4950812;29;20047;-63
2024/01/17 10:24:31;;;;;;;18.60;8.75;;;;;;;;;;4950724;29;20043;-63
2024/01/17 10:27:01;;;;;;;20.63;9.55;;;;;;;;;;4950813;29;20503;-65
2024/01/17 10:29:31;;;;;;;19.98;8.48;;;;;;;;;;4950846;29;20112;-62
2024/01/17 10:32:00;;;;;;;22.17;9.75;;;;;;;;;;4950522;29;20055;-65
2024/01/17 10:34:30;;;;;;;15.82;8.43;;;;;;;;;;4949925;28;20102;-63
2024/01/17 10:36:57;;;;;;;15.45;8.88;;;;;;;;;;4950299;29;20146;-63
2024/01/17 10:39:25;;;;;;;23.67;9.20;;;;;;;;;;4950584;29;20090;-62
2024/01/17 10:41:54;;;;;;;17.55;8.70;;;;;;;;;;4950333;29;20138;-62
2024/01/17 10:44:21;;;;;;;20.40;9.60;;;;;;;;;;4950345;29;20059;-64
2024/01/17 10:46:48;;;;;;;18.42;8.98;;;;;;;;;;4950599;29;20062;-63
2024/01/17 10:49:14;;;;;;;21.58;9.00;;;;;;;;;;4950187;29;20047;-62
2024/01/17 10:51:47;;;;;;;28.50;9.65;;;;;;;;;;4950071;28;20063;-63
2024/01/17 10:54:16;;;;;;;18.90;8.23;;;;;;;;;;4933494;29;20102;-62
2024/01/17 10:56:46;;;;;;;18.52;8.57;;;;;;;;;;4949926;29;20066;-64
2024/01/17 10:59:14;;;;;;;17.45;9.10;;;;;;;;;;4933116;29;20063;-61
2024/01/17 11:01:43;;;;;;;15.23;8.93;;;;;;;;;;4950423;29;20054;-62
2024/01/17 11:04:14;;;;;;;17.33;8.38;;;;;;;;;;4949409;28;20058;-62
2024/01/17 11:06:42;;;;;;;19.15;8.18;;;;;;;;;;4950159;29;20087;-64
2024/01/17 11:09:10;;;;;;;17.92;7.70;;;;;;;;;;4950006;29;20508;-63
2024/01/17 11:11:38;;;;;;;25.52;9.30;;;;;;;;;;4950347;29;20075;-63
2024/01/17 11:14:07;;;;;;;18.08;9.38;;;;;;;;;;4950330;29;20055;-63
2024/01/17 11:16:35;;;;;;;17.52;9.02;;;;;;;;;;4950423;29;20047;-63
2024/01/17 11:19:02;;;;;;;26.02;10.73;;;;;;;;;;4950143;29;20516;-63
2024/01/17 11:21:32;;;;;;;17.45;8.88;;;;;;;;;;4932737;29;20058;-62
2024/01/17 11:24:03;;;;;;;17.67;9.57;;;;;;;;;;4949981;29;20141;-63
2024/01/17 11:26:34;;;;;;;18.00;8.68;;;;;;;;;;4933143;29;20051;-63
2024/01/17 11:29:13;;;;;;;22.67;9.10;;;;;;;;;;4950167;29;20054;-61
2024/01/17 11:31:54;;;;;;;16.98;9.93;;;;;;;;;;4949926;29;20201;-60
2024/01/17 11:34:21;;;;;;;21.23;9.50;;;;;;;;;;4949607;28;20087;-61
2024/01/17 11:36:48;;;;;;;15.45;8.20;;;;;;;;;;4948999;28;20423;-62
2024/01/17 11:39:15;;;;;;;18.75;9.80;;;;;;;;;;4950368;28;20059;-61
2024/01/17 11:41:42;;;;;;;22.00;8.60;;;;;;;;;;4953393;29;20498;-60
2024/01/17 11:44:13;;;;;;;18.67;8.15;;;;;;;;;;4953378;29;20125;-66
2024/01/17 11:46:39;;;;;;;17.20;9.20;;;;;;;;;;4953448;29;20058;-60
2024/01/17 11:49:08;;;;;;;23.58;8.82;;;;;;;;;;4952993;29;20055;-60
2024/01/17 11:51:36;;;;;;;20.65;8.90;;;;;;;;;;4953045;28;20134;-60
2024/01/17 11:54:03;;;;;;;21.65;8.88;;;;;;;;;;4952793;29;20650;-61
2024/01/17 11:56:30;;;;;;;19.45;10.13;;;;;;;;;;4953145;29;20051;-60
2024/01/17 11:59:08;;;;;;;19.80;9.82;;;;;;;;;;4947443;29;20047;-61
2024/01/17 12:01:34;;;;;;;25.55;9.80;;;;;;;;;;4953488;29;20049;-61
2024/01/17 12:04:21;;;;;;;18.55;9.57;;;;;;;;;;4952933;29;20047;-60
2024/01/17 12:06:48;;;;;;;22.15;9.85;;;;;;;;;;4952609;28;20047;-60
2024/01/17 12:09:18;;;;;;;25.92;10.52;;;;;;;;;;4935747;29;20110;-60
2024/01/17 12:11:48;;;;;;;23.08;9.93;;;;;;;;;;4952655;29;20056;-60
2024/01/17 12:14:15;;;;;;;16.13;8.73;;;;;;;;;;4952668;29;20051;-61
2024/01/17 12:16:42;;;;;;;18.15;8.05;;;;;;;;;;4952594;29;20039;-60
2024/01/17 12:19:12;;;;;;;18.52;9.18;;;;;;;;;;4952602;29;20471;-61
2024/01/17 12:21:40;;;;;;;21.02;9.75;;;;;;;;;;4952685;29;20074;-61
2024/01/17 12:24:13;;;;;;;17.40;8.60;;;;;;;;;;4952529;29;20432;-62
2024/01/17 12:26:41;;;;;;;16.42;8.52;;;;;;;;;;4952594;29;20043;-61
2024/01/17 12:29:08;;;;;;;16.90;8.88;;;;;;;;;;4952781;29;20051;-61
2024/01/17 12:31:35;;;;;;;17.17;8.60;;;;;;;;;;4947586;29;20060;-60
2024/01/17 12:34:01;;;;;;;23.77;9.73;;;;;;;;;;4933527;29;20082;-60
2024/01/17 12:36:29;;;;;;;18.00;8.45;;;;;;;;;;4944524;28;20476;-63
2024/01/17 12:38:55;;;;;;;18.23;9.20;;;;;;;;;;4952434;29;20563;-63
2024/01/17 12:41:22;;;;;;;15.82;9.40;;;;;;;;;;4952538;29;20054;-60
2024/01/17 12:43:50;;;;;;;17.60;9.75;;;;;;;;;;4952256;29;20106;-60
2024/01/17 12:46:17;;;;;;;23.58;8.80;;;;;;;;;;4951989;29;20062;-62
2024/01/17 12:48:53;;;;;;;19.27;8.90;;;;;;;;;;4952017;29;20047;-60
2024/01/17 12:51:20;;;;;;;16.67;8.57;;;;;;;;;;4951055;28;20051;-61
2024/01/17 12:53:46;;;;;;;16.23;8.65;;;;;;;;;;4952374;29;20287;-60
2024/01/17 12:56:14;;;;;;;17.60;8.63;;;;;;;;;;4935046;29;20055;-61
2024/01/17 12:58:41;;;;;;;17.67;9.15;;;;;;;;;;4951842;29;20053;-60
2024/01/17 13:01:07;;;;;;;19.50;8.80;;;;;;;;;;4951902;29;20051;-61
2024/01/17 13:03:34;;;;;;;17.73;8.48;;;;;;;;;;4951876;29;20047;-60
2024/01/17 13:06:01;;;;;;;15.70;8.05;;;;;;;;;;4950897;28;20043;-62
2024/01/17 13:08:29;;;;;;;17.65;9.10;;;;;;;;;;4934821;29;20047;-60
2024/01/17 13:10:55;;;;;;;20.70;9.43;;;;;;;;;;4951517;29;20051;-62
2024/01/17 13:13:22;;;;;;;13.65;8.20;;;;;;;;;;4934791;29;20078;-60
2024/01/17 13:15:52;;;;;;;21.73;8.05;;;;;;;;;;4951885;29;20051;-61
2024/01/17 13:18:20;;;;;;;20.65;8.90;;;;;;;;;;4935104;29;20391;-61
2024/01/17 13:20:48;;;;;;;15.43;8.73;;;;;;;;;;4952194;29;20055;-61
2024/01/17 13:23:14;;;;;;;17.30;9.05;;;;;;;;;;4951554;29;20054;-60
2024/01/17 13:25:41;;;;;;;17.30;7.57;;;;;;;;;;4952857;29;20477;-60
2024/01/17 13:28:08;;;;;;;16.02;7.95;;;;;;;;;;4953151;29;20083;-64
2024/01/17 13:30:37;;;;;;;16.83;8.80;;;;;;;;;;4934394;29;20047;-61
2024/01/17 13:33:06;;;;;;;18.33;9.60;;;;;;;;;;4951551;29;20134;-60
2024/01/17 13:35:33;;;;;;;19.30;9.48;;;;;;;;;;4951271;29;20461;-62
2024/01/17 13:38:05;;;;;;;17.00;8.88;;;;;;;;;;4950330;28;20062;-62
2024/01/17 13:40:33;;;;;;;18.92;9.20;;;;;;;;;;4951401;29;20051;-62
2024/01/17 13:42:59;;;;;;;17.25;8.82;;;;;;;;;;4951054;29;20043;-61
2024/01/17 13:45:27;;;;;;;16.45;8.07;;;;;;;;;;4933975;29;20078;-60
2024/01/17 13:47:55;;;;;;;18.05;8.10;;;;;;;;;;4934118;29;20050;-60
2024/01/17 13:50:25;;;;;;;24.27;9.32;;;;;;;;;;4951202;28;20412;-59
2024/01/17 13:52:52;;;;;;;17.70;8.88;;;;;;;;;;4950986;29;20059;-60
2024/01/17 13:55:19;;;;;;;19.85;8.75;;;;;;;;;;4950998;29;20212;-59
2024/01/17 13:57:47;;;;;;;22.48;8.98;;;;;;;;;;4951237;29;20058;-60
2024/01/17 14:00:13;;;;;;;20.50;7.72;;;;;;;;;;4934503;29;20062;-63
2024/01/17 14:02:43;;;;;;;20.13;9.35;;;;;;;;;;4950697;28;20055;-62
2024/01/17 14:05:10;;;;;;;18.45;8.98;;;;;;;;;;4950762;29;20086;-62
2024/01/17 14:07:38;;;;;;;22.25;8.40;;;;;;;;;;4949796;28;20551;-62
2024/01/17 14:10:09;;;;;;;22.65;9.90;;;;;;;;;;4951041;29;20058;-60
2024/01/17 14:12:39;;;;;;;24.73;9.55;;;;;;;;;;4950844;29;20051;-59
2024/01/17 14:15:08;;;;;;;21.10;9.90;;;;;;;;;;4950827;29;20055;-61
2024/01/17 14:17:36;;;;;;;15.27;8.60;;;;;;;;;;4950402;29;20286;-59
2024/01/17 14:20:04;;;;;;;17.23;8.55;;;;;;;;;;4950761;29;20051;-60
2024/01/17 14:22:32;;;;;;;18.98;9.05;;;;;;;;;;4950574;29;20058;-61